This is the latest recevied weather packets stored in our database for station/object W5SDC. If no packets are shown the sender has not sent any weather packets the latest 10 day(s).
| Time | Temp. | Humidity | Pressure | Rain* | Wind** | Luminosity | Snow |
|---|---|---|---|---|---|---|---|
| 1777835717 | 26.11° C | 37% | 1021.6 hPa | 0 mm | - | - | - |
| 1777833920 | 26.67° C | 40% | 1022.2 hPa | 0 mm | - | - | - |
| 1777831830 | 26.67° C | 39% | 1022.9 hPa | 0 mm | - | - | - |
| 1777828822 | 25.56° C | 44% | 1023.5 hPa | 0 mm | - | - | - |
| 1777828529 | 25.56° C | 45% | 1023.5 hPa | 0 mm | - | - | - |
| 1777824624 | 24.44° C | 50% | 1024.2 hPa | 0 mm | - | - | - |
| 1777823452 | 23.89° C | 52% | 1024.2 hPa | 0 mm | - | - | - |
| 1777822515 | 23.33° C | 55% | 1024.2 hPa | 0 mm | - | - | - |
| 1777820131 | 23.89° C | 58% | 1024.1 hPa | 0 mm | - | - | - |
| 1777819820 | 23.33° C | 59% | 1024.1 hPa | 0 mm | - | - | - |
| 1777818922 | 22.78° C | 60% | 1024 hPa | 0 mm | - | - | - |
| 1777817730 | 22.22° C | 61% | 1023.9 hPa | 0 mm | - | - | - |
| 1777817125 | 21.67° C | 62% | 1023.9 hPa | 0 mm | - | - | - |
| 1777814429 | 18.33° C | 71% | 1023.8 hPa | 0 mm | - | - | - |
| 1777814117 | 17.78° C | 72% | 1023.7 hPa | 0 mm | - | - | - |
| 1777812945 | 15.56° C | 77% | 1023.6 hPa | 0 mm | - | - | - |
| 1777812027 | 14.44° C | 82% | 1023.5 hPa | 0 mm | - | - | - |
| 1777809625 | 11.67° C | 90% | 1023.1 hPa | 0 mm | - | - | - |
| 1777809352 | 11.67° C | 90% | 1023.1 hPa | 0 mm | - | - | - |
| 1777809020 | 11.67° C | 90% | 1023 hPa | 0 mm | - | - | - |
| 1777803922 | 12.22° C | 87% | 1022.4 hPa | 0 mm | - | - | - |
| 1777800915 | 12.22° C | 87% | 1022.2 hPa | 0 mm | - | - | - |
| 1777796423 | 12.78° C | 87% | 1022.2 hPa | 0 mm | - | - | - |
| 1777795524 | 12.78° C | 86% | 1022.4 hPa | 0 mm | - | - | - |
| 1777793748 | 13.33° C | 84% | 1022.5 hPa | 0 mm | - | - | - |
* Rain latest hour (hover to see other rain measurements)
** Current wind speed in m/s (hover to see current wind gust speed)